sensor_id;sensor_type;location;lat;lon;timestamp;temperature;humidity
45643;DHT22;31358;46.008;11.144;2023-08-06T00:00:40;17.90;99.90
45643;DHT22;31358;46.008;11.144;2023-08-06T00:03:06;17.90;99.90
45643;DHT22;31358;46.008;11.144;2023-08-06T00:05:31;17.90;99.90
45643;DHT22;31358;46.008;11.144;2023-08-06T00:07:57;17.90;99.90
45643;DHT22;31358;46.008;11.144;2023-08-06T00:10:23;17.80;99.90
45643;DHT22;31358;46.008;11.144;2023-08-06T00:12:48;17.70;99.90
45643;DHT22;31358;46.008;11.144;2023-08-06T00:15:14;17.60;99.90
45643;DHT22;31358;46.008;11.144;2023-08-06T00:17:40;17.50;99.90
45643;DHT22;31358;46.008;11.144;2023-08-06T00:20:06;17.40;99.90
45643;DHT22;31358;46.008;11.144;2023-08-06T00:22:33;17.40;99.90
45643;DHT22;31358;46.008;11.144;2023-08-06T00:24:59;17.30;99.90
45643;DHT22;31358;46.008;11.144;2023-08-06T00:27:25;17.50;99.90
45643;DHT22;31358;46.008;11.144;2023-08-06T00:29:51;17.60;99.90
45643;DHT22;31358;46.008;11.144;2023-08-06T00:32:17;17.60;99.90
45643;DHT22;31358;46.008;11.144;2023-08-06T00:34:43;17.60;99.90
45643;DHT22;31358;46.008;11.144;2023-08-06T00:37:08;17.40;99.90
45643;DHT22;31358;46.008;11.144;2023-08-06T00:39:34;17.40;99.90
45643;DHT22;31358;46.008;11.144;2023-08-06T00:42:00;17.50;99.90
45643;DHT22;31358;46.008;11.144;2023-08-06T00:44:25;17.50;99.90
45643;DHT22;31358;46.008;11.144;2023-08-06T00:46:51;17.40;99.90
45643;DHT22;31358;46.008;11.144;2023-08-06T00:49:17;17.40;99.90
45643;DHT22;31358;46.008;11.144;2023-08-06T00:51:42;17.40;99.90
45643;DHT22;31358;46.008;11.144;2023-08-06T00:54:09;17.40;99.90
45643;DHT22;31358;46.008;11.144;2023-08-06T00:56:35;17.40;99.90
45643;DHT22;31358;46.008;11.144;2023-08-06T00:59:01;17.50;99.90
45643;DHT22;31358;46.008;11.144;2023-08-06T01:01:27;17.40;99.90
45643;DHT22;31358;46.008;11.144;2023-08-06T01:03:54;17.30;99.90
45643;DHT22;31358;46.008;11.144;2023-08-06T01:06:27;17.20;99.90
45643;DHT22;31358;46.008;11.144;2023-08-06T01:09:00;17.20;99.90
45643;DHT22;31358;46.008;11.144;2023-08-06T01:16:37;17.30;99.90
45643;DHT22;31358;46.008;11.144;2023-08-06T01:19:05;17.30;99.90
45643;DHT22;31358;46.008;11.144;2023-08-06T01:21:40;17.30;99.90
45643;DHT22;31358;46.008;11.144;2023-08-06T01:24:06;17.20;99.90
45643;DHT22;31358;46.008;11.144;2023-08-06T01:26:51;17.20;99.90
45643;DHT22;31358;46.008;11.144;2023-08-06T01:29:25;17.20;99.90
45643;DHT22;31358;46.008;11.144;2023-08-06T01:31:53;17.30;99.90
45643;DHT22;31358;46.008;11.144;2023-08-06T01:34:25;17.20;99.90
45643;DHT22;31358;46.008;11.144;2023-08-06T01:36:52;17.20;99.90
45643;DHT22;31358;46.008;11.144;2023-08-06T01:39:18;17.20;99.90
45643;DHT22;31358;46.008;11.144;2023-08-06T01:41:47;17.20;99.90
45643;DHT22;31358;46.008;11.144;2023-08-06T01:44:13;17.20;99.90
45643;DHT22;31358;46.008;11.144;2023-08-06T01:46:39;17.30;99.90
45643;DHT22;31358;46.008;11.144;2023-08-06T01:49:04;17.30;99.90
45643;DHT22;31358;46.008;11.144;2023-08-06T01:51:30;17.40;99.90
45643;DHT22;31358;46.008;11.144;2023-08-06T01:53:55;17.50;99.90
45643;DHT22;31358;46.008;11.144;2023-08-06T01:56:21;17.40;99.90
45643;DHT22;31358;46.008;11.144;2023-08-06T01:58:47;17.40;99.90
45643;DHT22;31358;46.008;11.144;2023-08-06T02:01:12;17.50;99.90
45643;DHT22;31358;46.008;11.144;2023-08-06T02:03:38;17.50;99.90
45643;DHT22;31358;46.008;11.144;2023-08-06T02:06:04;17.60;99.90
45643;DHT22;31358;46.008;11.144;2023-08-06T02:08:29;17.60;99.90
45643;DHT22;31358;46.008;11.144;2023-08-06T02:10:55;17.50;99.90
45643;DHT22;31358;46.008;11.144;2023-08-06T02:13:21;17.30;99.90
45643;DHT22;31358;46.008;11.144;2023-08-06T02:15:46;17.20;99.90
45643;DHT22;31358;46.008;11.144;2023-08-06T02:18:16;17.20;99.90
45643;DHT22;31358;46.008;11.144;2023-08-06T02:20:42;17.20;99.90
45643;DHT22;31358;46.008;11.144;2023-08-06T02:23:08;17.30;99.90
45643;DHT22;31358;46.008;11.144;2023-08-06T02:25:34;17.10;99.90
45643;DHT22;31358;46.008;11.144;2023-08-06T02:28:00;17.10;99.90
45643;DHT22;31358;46.008;11.144;2023-08-06T02:30:26;17.00;99.90
45643;DHT22;31358;46.008;11.144;2023-08-06T02:32:51;17.10;99.90
45643;DHT22;31358;46.008;11.144;2023-08-06T02:35:17;16.90;99.90
45643;DHT22;31358;46.008;11.144;2023-08-06T02:37:43;16.80;99.90
45643;DHT22;31358;46.008;11.144;2023-08-06T02:40:08;16.70;99.90
45643;DHT22;31358;46.008;11.144;2023-08-06T02:42:34;16.70;99.90
45643;DHT22;31358;46.008;11.144;2023-08-06T02:45:00;16.80;99.90
45643;DHT22;31358;46.008;11.144;2023-08-06T02:47:25;16.80;99.90
45643;DHT22;31358;46.008;11.144;2023-08-06T02:49:51;16.90;99.90
45643;DHT22;31358;46.008;11.144;2023-08-06T02:52:17;16.90;99.90
45643;DHT22;31358;46.008;11.144;2023-08-06T02:54:43;16.90;99.90
45643;DHT22;31358;46.008;11.144;2023-08-06T02:57:08;17.10;99.90
45643;DHT22;31358;46.008;11.144;2023-08-06T02:59:34;17.20;99.90
45643;DHT22;31358;46.008;11.144;2023-08-06T03:01:59;17.20;99.90
45643;DHT22;31358;46.008;11.144;2023-08-06T03:04:25;17.20;99.90
45643;DHT22;31358;46.008;11.144;2023-08-06T03:06:51;17.10;99.90
45643;DHT22;31358;46.008;11.144;2023-08-06T03:09:17;16.90;99.90
45643;DHT22;31358;46.008;11.144;2023-08-06T03:11:43;16.90;99.90
45643;DHT22;31358;46.008;11.144;2023-08-06T03:14:09;16.90;99.90
45643;DHT22;31358;46.008;11.144;2023-08-06T03:16:34;17.00;99.90
45643;DHT22;31358;46.008;11.144;2023-08-06T03:19:00;17.10;99.90
45643;DHT22;31358;46.008;11.144;2023-08-06T03:21:26;17.30;99.90
45643;DHT22;31358;46.008;11.144;2023-08-06T03:23:51;17.30;99.90
45643;DHT22;31358;46.008;11.144;2023-08-06T03:26:17;17.30;99.90
45643;DHT22;31358;46.008;11.144;2023-08-06T03:28:43;17.30;99.90
45643;DHT22;31358;46.008;11.144;2023-08-06T03:31:08;17.10;99.90
45643;DHT22;31358;46.008;11.144;2023-08-06T03:33:34;17.20;99.90
45643;DHT22;31358;46.008;11.144;2023-08-06T03:36:00;17.30;99.90
45643;DHT22;31358;46.008;11.144;2023-08-06T03:38:26;17.20;99.90
45643;DHT22;31358;46.008;11.144;2023-08-06T03:40:52;17.20;99.90
45643;DHT22;31358;46.008;11.144;2023-08-06T03:43:17;17.20;99.90
45643;DHT22;31358;46.008;11.144;2023-08-06T03:45:43;17.30;99.90
45643;DHT22;31358;46.008;11.144;2023-08-06T03:48:09;17.20;99.90
45643;DHT22;31358;46.008;11.144;2023-08-06T03:50:35;17.10;99.90
45643;DHT22;31358;46.008;11.144;2023-08-06T03:53:01;16.90;99.90
45643;DHT22;31358;46.008;11.144;2023-08-06T03:55:27;16.90;99.90
45643;DHT22;31358;46.008;11.144;2023-08-06T03:57:53;17.10;99.90
45643;DHT22;31358;46.008;11.144;2023-08-06T04:00:18;17.00;99.90
45643;DHT22;31358;46.008;11.144;2023-08-06T04:02:44;16.90;99.90
45643;DHT22;31358;46.008;11.144;2023-08-06T04:05:10;16.70;99.90
45643;DHT22;31358;46.008;11.144;2023-08-06T04:07:36;16.50;99.90
45643;DHT22;31358;46.008;11.144;2023-08-06T04:10:03;16.50;99.90
45643;DHT22;31358;46.008;11.144;2023-08-06T04:12:30;16.50;99.90
45643;DHT22;31358;46.008;11.144;2023-08-06T04:14:57;16.40;99.90
45643;DHT22;31358;46.008;11.144;2023-08-06T04:17:23;16.60;99.90
45643;DHT22;31358;46.008;11.144;2023-08-06T04:19:53;16.60;99.90
45643;DHT22;31358;46.008;11.144;2023-08-06T04:22:20;16.50;99.90
45643;DHT22;31358;46.008;11.144;2023-08-06T04:24:47;16.50;99.90
45643;DHT22;31358;46.008;11.144;2023-08-06T04:27:14;16.40;99.90
45643;DHT22;31358;46.008;11.144;2023-08-06T04:29:40;16.30;99.90
45643;DHT22;31358;46.008;11.144;2023-08-06T04:32:08;16.20;99.90
45643;DHT22;31358;46.008;11.144;2023-08-06T04:34:34;16.10;99.90
45643;DHT22;31358;46.008;11.144;2023-08-06T04:37:01;16.10;99.90
45643;DHT22;31358;46.008;11.144;2023-08-06T04:39:27;16.00;99.90
45643;DHT22;31358;46.008;11.144;2023-08-06T04:41:53;15.90;99.90
45643;DHT22;31358;46.008;11.144;2023-08-06T04:44:18;15.70;99.90
45643;DHT22;31358;46.008;11.144;2023-08-06T04:46:44;15.70;99.90
45643;DHT22;31358;46.008;11.144;2023-08-06T04:49:10;15.70;99.90
45643;DHT22;31358;46.008;11.144;2023-08-06T04:51:36;15.70;99.90
45643;DHT22;31358;46.008;11.144;2023-08-06T04:54:01;15.80;99.90
45643;DHT22;31358;46.008;11.144;2023-08-06T04:56:27;15.90;99.90
45643;DHT22;31358;46.008;11.144;2023-08-06T04:58:53;16.00;99.90
45643;DHT22;31358;46.008;11.144;2023-08-06T05:01:18;16.10;99.90
45643;DHT22;31358;46.008;11.144;2023-08-06T05:03:44;16.00;99.90
45643;DHT22;31358;46.008;11.144;2023-08-06T05:06:10;15.80;99.90
45643;DHT22;31358;46.008;11.144;2023-08-06T05:08:36;16.00;99.90
45643;DHT22;31358;46.008;11.144;2023-08-06T05:11:02;15.80;99.90
45643;DHT22;31358;46.008;11.144;2023-08-06T05:13:27;16.00;99.90
45643;DHT22;31358;46.008;11.144;2023-08-06T05:15:54;15.90;99.90
45643;DHT22;31358;46.008;11.144;2023-08-06T05:18:20;16.00;99.90
45643;DHT22;31358;46.008;11.144;2023-08-06T05:20:45;16.00;99.90
45643;DHT22;31358;46.008;11.144;2023-08-06T05:23:11;16.00;99.90
45643;DHT22;31358;46.008;11.144;2023-08-06T05:25:38;15.90;99.90
45643;DHT22;31358;46.008;11.144;2023-08-06T05:28:04;15.80;99.90
45643;DHT22;31358;46.008;11.144;2023-08-06T05:30:30;15.90;99.90
45643;DHT22;31358;46.008;11.144;2023-08-06T05:32:55;16.00;99.90
45643;DHT22;31358;46.008;11.144;2023-08-06T05:35:22;16.00;99.90
45643;DHT22;31358;46.008;11.144;2023-08-06T05:37:48;16.00;99.90
45643;DHT22;31358;46.008;11.144;2023-08-06T05:40:14;16.10;99.90
45643;DHT22;31358;46.008;11.144;2023-08-06T05:42:40;16.30;99.90
45643;DHT22;31358;46.008;11.144;2023-08-06T05:45:07;16.20;99.90
45643;DHT22;31358;46.008;11.144;2023-08-06T05:47:33;16.20;99.90
45643;DHT22;31358;46.008;11.144;2023-08-06T05:49:58;16.20;99.90
45643;DHT22;31358;46.008;11.144;2023-08-06T05:52:24;16.20;99.90
45643;DHT22;31358;46.008;11.144;2023-08-06T05:54:50;16.30;99.90
45643;DHT22;31358;46.008;11.144;2023-08-06T05:57:16;16.30;99.90
45643;DHT22;31358;46.008;11.144;2023-08-06T05:59:42;16.50;99.90
45643;DHT22;31358;46.008;11.144;2023-08-06T06:02:07;16.60;99.90
45643;DHT22;31358;46.008;11.144;2023-08-06T06:04:33;16.80;99.90
45643;DHT22;31358;46.008;11.144;2023-08-06T06:06:59;16.80;99.90
45643;DHT22;31358;46.008;11.144;2023-08-06T06:09:24;16.60;99.90
45643;DHT22;31358;46.008;11.144;2023-08-06T06:11:50;16.90;99.90
45643;DHT22;31358;46.008;11.144;2023-08-06T06:14:19;17.10;99.90
45643;DHT22;31358;46.008;11.144;2023-08-06T06:16:45;17.20;99.90
45643;DHT22;31358;46.008;11.144;2023-08-06T06:19:12;17.30;99.90
45643;DHT22;31358;46.008;11.144;2023-08-06T06:21:38;17.30;99.90
45643;DHT22;31358;46.008;11.144;2023-08-06T06:24:05;17.30;99.90
45643;DHT22;31358;46.008;11.144;2023-08-06T06:26:31;17.40;99.90
45643;DHT22;31358;46.008;11.144;2023-08-06T06:28:57;17.60;99.90
45643;DHT22;31358;46.008;11.144;2023-08-06T06:31:23;17.70;99.90
45643;DHT22;31358;46.008;11.144;2023-08-06T06:33:49;17.70;99.90
45643;DHT22;31358;46.008;11.144;2023-08-06T06:36:15;17.90;99.90
45643;DHT22;31358;46.008;11.144;2023-08-06T06:38:40;18.00;99.90
45643;DHT22;31358;46.008;11.144;2023-08-06T06:41:06;18.20;99.90
45643;DHT22;31358;46.008;11.144;2023-08-06T06:43:32;18.30;99.90
45643;DHT22;31358;46.008;11.144;2023-08-06T06:46:00;18.40;99.90
45643;DHT22;31358;46.008;11.144;2023-08-06T06:48:31;18.60;99.90
45643;DHT22;31358;46.008;11.144;2023-08-06T06:50:57;18.70;99.90
45643;DHT22;31358;46.008;11.144;2023-08-06T06:53:23;18.80;99.90
45643;DHT22;31358;46.008;11.144;2023-08-06T06:55:55;19.10;99.90
45643;DHT22;31358;46.008;11.144;2023-08-06T06:58:21;19.40;99.90
45643;DHT22;31358;46.008;11.144;2023-08-06T07:00:48;19.80;99.90
45643;DHT22;31358;46.008;11.144;2023-08-06T07:03:17;20.20;99.90
45643;DHT22;31358;46.008;11.144;2023-08-06T07:05:44;20.60;99.90
45643;DHT22;31358;46.008;11.144;2023-08-06T07:08:10;20.90;99.90
45643;DHT22;31358;46.008;11.144;2023-08-06T07:10:35;20.80;99.90
45643;DHT22;31358;46.008;11.144;2023-08-06T07:13:01;21.00;99.90
45643;DHT22;31358;46.008;11.144;2023-08-06T07:15:27;21.20;99.90
45643;DHT22;31358;46.008;11.144;2023-08-06T07:17:52;21.20;99.90
45643;DHT22;31358;46.008;11.144;2023-08-06T07:20:18;22.10;99.90
45643;DHT22;31358;46.008;11.144;2023-08-06T07:22:44;23.60;98.60
45643;DHT22;31358;46.008;11.144;2023-08-06T07:25:10;24.70;96.10
45643;DHT22;31358;46.008;11.144;2023-08-06T07:27:36;26.30;95.90
45643;DHT22;31358;46.008;11.144;2023-08-06T07:30:02;27.10;94.30
45643;DHT22;31358;46.008;11.144;2023-08-06T07:32:27;25.10;95.40
45643;DHT22;31358;46.008;11.144;2023-08-06T07:34:53;25.20;96.20
45643;DHT22;31358;46.008;11.144;2023-08-06T07:37:22;27.00;94.50
45643;DHT22;31358;46.008;11.144;2023-08-06T07:39:48;27.70;92.50
45643;DHT22;31358;46.008;11.144;2023-08-06T07:42:14;27.90;92.20
45643;DHT22;31358;46.008;11.144;2023-08-06T07:44:40;28.20;90.00
45643;DHT22;31358;46.008;11.144;2023-08-06T07:47:05;28.90;89.70
45643;DHT22;31358;46.008;11.144;2023-08-06T07:49:31;29.20;90.40
45643;DHT22;31358;46.008;11.144;2023-08-06T07:51:57;29.00;89.40
45643;DHT22;31358;46.008;11.144;2023-08-06T07:54:22;27.90;88.00
45643;DHT22;31358;46.008;11.144;2023-08-06T07:56:49;27.40;89.30
45643;DHT22;31358;46.008;11.144;2023-08-06T07:59:15;25.70;90.50
45643;DHT22;31358;46.008;11.144;2023-08-06T08:01:41;23.80;93.10
45643;DHT22;31358;46.008;11.144;2023-08-06T08:04:06;22.70;93.50
45643;DHT22;31358;46.008;11.144;2023-08-06T08:06:33;21.90;94.30
45643;DHT22;31358;46.008;11.144;2023-08-06T08:08:59;21.70;95.00
45643;DHT22;31358;46.008;11.144;2023-08-06T08:11:25;21.60;95.00
45643;DHT22;31358;46.008;11.144;2023-08-06T08:13:51;21.50;95.10
45643;DHT22;31358;46.008;11.144;2023-08-06T08:16:17;21.50;95.60
45643;DHT22;31358;46.008;11.144;2023-08-06T08:18:42;21.60;96.00
45643;DHT22;31358;46.008;11.144;2023-08-06T08:21:08;21.90;96.50
45643;DHT22;31358;46.008;11.144;2023-08-06T08:23:34;23.50;93.30
45643;DHT22;31358;46.008;11.144;2023-08-06T08:25:59;24.80;92.50
45643;DHT22;31358;46.008;11.144;2023-08-06T08:28:27;25.60;92.30
45643;DHT22;31358;46.008;11.144;2023-08-06T08:30:53;25.50;93.30
45643;DHT22;31358;46.008;11.144;2023-08-06T08:33:18;25.20;92.50
45643;DHT22;31358;46.008;11.144;2023-08-06T08:35:45;26.00;92.50
45643;DHT22;31358;46.008;11.144;2023-08-06T08:38:11;25.40;93.90
45643;DHT22;31358;46.008;11.144;2023-08-06T08:40:44;25.30;94.00
45643;DHT22;31358;46.008;11.144;2023-08-06T08:43:11;24.80;93.30
45643;DHT22;31358;46.008;11.144;2023-08-06T08:45:39;24.20;93.20
45643;DHT22;31358;46.008;11.144;2023-08-06T08:48:06;23.70;94.10
45643;DHT22;31358;46.008;11.144;2023-08-06T08:50:32;23.50;93.20
45643;DHT22;31358;46.008;11.144;2023-08-06T08:52:58;23.20;92.90
45643;DHT22;31358;46.008;11.144;2023-08-06T08:55:24;23.30;94.50
45643;DHT22;31358;46.008;11.144;2023-08-06T08:57:50;23.70;94.90
45643;DHT22;31358;46.008;11.144;2023-08-06T09:00:15;23.20;92.70
45643;DHT22;31358;46.008;11.144;2023-08-06T09:02:42;23.10;92.60
45643;DHT22;31358;46.008;11.144;2023-08-06T09:05:09;23.50;92.80
45643;DHT22;31358;46.008;11.144;2023-08-06T09:07:41;23.60;93.30
45643;DHT22;31358;46.008;11.144;2023-08-06T09:10:10;23.70;93.70
45643;DHT22;31358;46.008;11.144;2023-08-06T09:12:36;23.60;92.50
45643;DHT22;31358;46.008;11.144;2023-08-06T09:15:02;23.50;93.30
45643;DHT22;31358;46.008;11.144;2023-08-06T09:17:29;23.60;92.30
45643;DHT22;31358;46.008;11.144;2023-08-06T09:19:54;23.40;92.70
45643;DHT22;31358;46.008;11.144;2023-08-06T09:22:20;23.40;93.00
45643;DHT22;31358;46.008;11.144;2023-08-06T09:24:46;23.70;93.80
45643;DHT22;31358;46.008;11.144;2023-08-06T09:27:13;23.70;92.80
45643;DHT22;31358;46.008;11.144;2023-08-06T09:29:45;24.00;92.30
45643;DHT22;31358;46.008;11.144;2023-08-06T09:32:12;23.90;91.10
45643;DHT22;31358;46.008;11.144;2023-08-06T09:34:46;24.10;92.10
45643;DHT22;31358;46.008;11.144;2023-08-06T09:37:11;24.60;92.80
45643;DHT22;31358;46.008;11.144;2023-08-06T09:39:39;24.90;93.90
45643;DHT22;31358;46.008;11.144;2023-08-06T09:42:05;24.70;92.10
45643;DHT22;31358;46.008;11.144;2023-08-06T09:44:32;24.60;92.30
45643;DHT22;31358;46.008;11.144;2023-08-06T09:47:03;24.70;92.50
45643;DHT22;31358;46.008;11.144;2023-08-06T09:49:41;24.70;94.50
45643;DHT22;31358;46.008;11.144;2023-08-06T09:52:12;24.80;92.80
45643;DHT22;31358;46.008;11.144;2023-08-06T09:54:39;24.70;91.30
45643;DHT22;31358;46.008;11.144;2023-08-06T09:57:05;24.90;93.40
45643;DHT22;31358;46.008;11.144;2023-08-06T09:59:32;25.10;92.50
45643;DHT22;31358;46.008;11.144;2023-08-06T10:01:58;25.10;92.80
45643;DHT22;31358;46.008;11.144;2023-08-06T10:04:24;25.20;92.70
45643;DHT22;31358;46.008;11.144;2023-08-06T10:06:50;25.30;92.20
45643;DHT22;31358;46.008;11.144;2023-08-06T10:09:16;25.20;91.90
45643;DHT22;31358;46.008;11.144;2023-08-06T10:11:43;25.10;92.90
45643;DHT22;31358;46.008;11.144;2023-08-06T10:14:18;25.20;92.50
45643;DHT22;31358;46.008;11.144;2023-08-06T10:16:45;25.40;93.00
45643;DHT22;31358;46.008;11.144;2023-08-06T10:19:12;25.60;92.70
45643;DHT22;31358;46.008;11.144;2023-08-06T10:21:39;25.50;91.70
45643;DHT22;31358;46.008;11.144;2023-08-06T10:24:08;25.60;91.00
45643;DHT22;31358;46.008;11.144;2023-08-06T10:26:37;25.70;91.10
45643;DHT22;31358;46.008;11.144;2023-08-06T10:29:35;25.90;92.50
45643;DHT22;31358;46.008;11.144;2023-08-06T10:32:02;25.90;90.90
45643;DHT22;31358;46.008;11.144;2023-08-06T10:34:56;25.80;91.10
45643;DHT22;31358;46.008;11.144;2023-08-06T10:37:22;25.70;90.30
45643;DHT22;31358;46.008;11.144;2023-08-06T10:39:52;25.80;91.90
45643;DHT22;31358;46.008;11.144;2023-08-06T10:42:28;26.10;91.70
45643;DHT22;31358;46.008;11.144;2023-08-06T10:45:26;26.20;91.10
45643;DHT22;31358;46.008;11.144;2023-08-06T10:47:56;26.10;84.90
45643;DHT22;31358;46.008;11.144;2023-08-06T10:50:26;26.00;89.00
45643;DHT22;31358;46.008;11.144;2023-08-06T10:52:52;26.10;90.30
45643;DHT22;31358;46.008;11.144;2023-08-06T10:55:24;26.20;90.90
45643;DHT22;31358;46.008;11.144;2023-08-06T10:57:50;26.50;91.50
45643;DHT22;31358;46.008;11.144;2023-08-06T11:00:16;26.60;89.30
45643;DHT22;31358;46.008;11.144;2023-08-06T11:02:42;26.80;90.80
45643;DHT22;31358;46.008;11.144;2023-08-06T11:05:09;26.80;89.70
45643;DHT22;31358;46.008;11.144;2023-08-06T11:07:36;27.10;89.30
45643;DHT22;31358;46.008;11.144;2023-08-06T11:10:03;27.20;88.80
45643;DHT22;31358;46.008;11.144;2023-08-06T11:12:30;27.20;88.20
45643;DHT22;31358;46.008;11.144;2023-08-06T11:14:56;27.20;90.10
45643;DHT22;31358;46.008;11.144;2023-08-06T11:17:22;27.50;89.30
45643;DHT22;31358;46.008;11.144;2023-08-06T11:19:48;26.90;87.00
45643;DHT22;31358;46.008;11.144;2023-08-06T11:22:14;27.50;87.60
45643;DHT22;31358;46.008;11.144;2023-08-06T11:24:40;27.70;88.50
45643;DHT22;31358;46.008;11.144;2023-08-06T11:27:16;28.00;90.10
45643;DHT22;31358;46.008;11.144;2023-08-06T11:29:42;28.40;90.40
45643;DHT22;31358;46.008;11.144;2023-08-06T11:32:09;28.50;88.80
45643;DHT22;31358;46.008;11.144;2023-08-06T11:34:35;28.50;86.00
45643;DHT22;31358;46.008;11.144;2023-08-06T11:37:03;28.40;84.10
45643;DHT22;31358;46.008;11.144;2023-08-06T11:39:34;28.00;84.80
45643;DHT22;31358;46.008;11.144;2023-08-06T11:42:02;28.30;84.80
45643;DHT22;31358;46.008;11.144;2023-08-06T11:44:30;28.40;84.40
45643;DHT22;31358;46.008;11.144;2023-08-06T11:46:59;27.90;84.00
45643;DHT22;31358;46.008;11.144;2023-08-06T11:49:45;28.00;88.20
45643;DHT22;31358;46.008;11.144;2023-08-06T11:52:18;28.20;87.00
45643;DHT22;31358;46.008;11.144;2023-08-06T11:55:09;28.30;84.30
45643;DHT22;31358;46.008;11.144;2023-08-06T11:57:36;28.30;83.40
45643;DHT22;31358;46.008;11.144;2023-08-06T12:00:23;28.50;84.00
45643;DHT22;31358;46.008;11.144;2023-08-06T12:02:49;28.40;85.00
45643;DHT22;31358;46.008;11.144;2023-08-06T12:05:18;28.70;84.70
45643;DHT22;31358;46.008;11.144;2023-08-06T12:07:51;28.70;82.30
45643;DHT22;31358;46.008;11.144;2023-08-06T12:10:18;28.80;84.10
45643;DHT22;31358;46.008;11.144;2023-08-06T12:12:45;28.70;79.30
45643;DHT22;31358;46.008;11.144;2023-08-06T12:15:11;28.90;82.00
45643;DHT22;31358;46.008;11.144;2023-08-06T12:17:37;28.70;85.70
45643;DHT22;31358;46.008;11.144;2023-08-06T12:20:04;27.50;80.40
45643;DHT22;31358;46.008;11.144;2023-08-06T12:22:30;26.70;80.10
45643;DHT22;31358;46.008;11.144;2023-08-06T12:25:05;26.30;79.70
45643;DHT22;31358;46.008;11.144;2023-08-06T12:27:37;26.00;79.30
45643;DHT22;31358;46.008;11.144;2023-08-06T12:30:04;25.70;80.80
45643;DHT22;31358;46.008;11.144;2023-08-06T12:32:30;25.60;82.80
45643;DHT22;31358;46.008;11.144;2023-08-06T12:34:56;25.50;84.60
45643;DHT22;31358;46.008;11.144;2023-08-06T12:37:22;25.30;87.90
45643;DHT22;31358;46.008;11.144;2023-08-06T12:39:48;25.10;87.10
45643;DHT22;31358;46.008;11.144;2023-08-06T12:42:14;25.10;83.60
45643;DHT22;31358;46.008;11.144;2023-08-06T12:44:40;25.00;90.30
45643;DHT22;31358;46.008;11.144;2023-08-06T12:47:07;24.60;87.20
45643;DHT22;31358;46.008;11.144;2023-08-06T12:49:33;24.60;85.90
45643;DHT22;31358;46.008;11.144;2023-08-06T12:51:58;24.40;89.10
45643;DHT22;31358;46.008;11.144;2023-08-06T12:54:27;24.30;90.50
45643;DHT22;31358;46.008;11.144;2023-08-06T12:56:53;24.70;89.90
45643;DHT22;31358;46.008;11.144;2023-08-06T12:59:19;25.30;89.40
45643;DHT22;31358;46.008;11.144;2023-08-06T13:01:45;26.10;89.60
45643;DHT22;31358;46.008;11.144;2023-08-06T13:04:12;26.60;84.00
45643;DHT22;31358;46.008;11.144;2023-08-06T13:06:38;27.00;84.90
45643;DHT22;31358;46.008;11.144;2023-08-06T13:09:12;27.00;81.10
45643;DHT22;31358;46.008;11.144;2023-08-06T13:11:41;27.40;82.40
45643;DHT22;31358;46.008;11.144;2023-08-06T13:14:09;27.30;80.60
45643;DHT22;31358;46.008;11.144;2023-08-06T13:16:36;27.30;82.00
45643;DHT22;31358;46.008;11.144;2023-08-06T13:19:02;27.10;87.20
45643;DHT22;31358;46.008;11.144;2023-08-06T13:21:38;26.40;88.50
45643;DHT22;31358;46.008;11.144;2023-08-06T13:24:17;25.90;87.20
45643;DHT22;31358;46.008;11.144;2023-08-06T13:26:43;25.60;87.40
45643;DHT22;31358;46.008;11.144;2023-08-06T13:29:08;25.50;88.50
45643;DHT22;31358;46.008;11.144;2023-08-06T13:31:35;25.60;87.20
45643;DHT22;31358;46.008;11.144;2023-08-06T13:34:00;25.60;88.30
45643;DHT22;31358;46.008;11.144;2023-08-06T13:36:27;25.40;83.10
45643;DHT22;31358;46.008;11.144;2023-08-06T13:38:52;25.10;82.40
45643;DHT22;31358;46.008;11.144;2023-08-06T13:41:18;25.10;84.20
45643;DHT22;31358;46.008;11.144;2023-08-06T13:43:44;25.00;89.50
45643;DHT22;31358;46.008;11.144;2023-08-06T13:46:11;24.60;83.30
45643;DHT22;31358;46.008;11.144;2023-08-06T13:48:42;24.60;83.50
45643;DHT22;31358;46.008;11.144;2023-08-06T13:51:08;24.40;82.40
45643;DHT22;31358;46.008;11.144;2023-08-06T13:53:33;24.50;82.50
45643;DHT22;31358;46.008;11.144;2023-08-06T13:55:59;24.30;81.50
45643;DHT22;31358;46.008;11.144;2023-08-06T13:58:25;24.20;83.40
45643;DHT22;31358;46.008;11.144;2023-08-06T14:00:52;24.40;82.20
45643;DHT22;31358;46.008;11.144;2023-08-06T14:03:19;24.40;84.00
45643;DHT22;31358;46.008;11.144;2023-08-06T14:05:45;24.10;84.90
45643;DHT22;31358;46.008;11.144;2023-08-06T14:08:11;24.10;83.20
45643;DHT22;31358;46.008;11.144;2023-08-06T14:10:37;24.30;84.10
45643;DHT22;31358;46.008;11.144;2023-08-06T14:13:02;24.30;90.00
45643;DHT22;31358;46.008;11.144;2023-08-06T14:15:28;24.30;83.20
45643;DHT22;31358;46.008;11.144;2023-08-06T14:17:54;24.40;83.60
45643;DHT22;31358;46.008;11.144;2023-08-06T14:20:19;24.50;84.20
45643;DHT22;31358;46.008;11.144;2023-08-06T14:22:45;24.70;82.50
45643;DHT22;31358;46.008;11.144;2023-08-06T14:25:11;24.60;85.90
45643;DHT22;31358;46.008;11.144;2023-08-06T14:27:36;24.50;87.30
45643;DHT22;31358;46.008;11.144;2023-08-06T14:30:05;24.50;84.80
45643;DHT22;31358;46.008;11.144;2023-08-06T14:32:32;24.50;87.60
45643;DHT22;31358;46.008;11.144;2023-08-06T14:34:58;24.40;86.20
45643;DHT22;31358;46.008;11.144;2023-08-06T14:37:24;24.30;86.00
45643;DHT22;31358;46.008;11.144;2023-08-06T14:39:51;24.40;87.10
45643;DHT22;31358;46.008;11.144;2023-08-06T14:42:17;24.20;91.50
45643;DHT22;31358;46.008;11.144;2023-08-06T14:44:43;24.10;90.40
45643;DHT22;31358;46.008;11.144;2023-08-06T14:47:08;24.10;90.40
45643;DHT22;31358;46.008;11.144;2023-08-06T14:49:34;23.90;91.20
45643;DHT22;31358;46.008;11.144;2023-08-06T14:52:00;23.50;91.50
45643;DHT22;31358;46.008;11.144;2023-08-06T14:54:27;23.20;91.20
45643;DHT22;31358;46.008;11.144;2023-08-06T14:56:53;23.80;91.60
45643;DHT22;31358;46.008;11.144;2023-08-06T14:59:18;24.20;91.70
45643;DHT22;31358;46.008;11.144;2023-08-06T15:01:44;24.50;89.90
45643;DHT22;31358;46.008;11.144;2023-08-06T15:04:10;25.10;90.30
45643;DHT22;31358;46.008;11.144;2023-08-06T15:06:35;25.50;85.90
45643;DHT22;31358;46.008;11.144;2023-08-06T15:09:01;25.80;85.80
45643;DHT22;31358;46.008;11.144;2023-08-06T15:11:27;26.00;81.90
45643;DHT22;31358;46.008;11.144;2023-08-06T15:13:52;26.10;82.50
45643;DHT22;31358;46.008;11.144;2023-08-06T15:16:18;26.10;85.60
45643;DHT22;31358;46.008;11.144;2023-08-06T15:18:44;26.20;88.50